sensor_id;sensor_type;location;lat;lon;timestamp;P1;durP1;ratioP1;P2;durP2;ratioP2
14799;SDS011;7491;57.750;11.970;2022-12-07T00:00:12;10.40;;;5.57;;
14799;SDS011;7491;57.750;11.970;2022-12-07T00:02:40;6.82;;;4.53;;
14799;SDS011;7491;57.750;11.970;2022-12-07T00:05:07;10.98;;;5.15;;
14799;SDS011;7491;57.750;11.970;2022-12-07T00:07:35;7.72;;;5.00;;
14799;SDS011;7491;57.750;11.970;2022-12-07T00:10:02;9.05;;;4.80;;
14799;SDS011;7491;57.750;11.970;2022-12-07T00:12:29;10.75;;;5.28;;
14799;SDS011;7491;57.750;11.970;2022-12-07T00:14:56;8.07;;;4.70;;
14799;SDS011;7491;57.750;11.970;2022-12-07T00:17:23;8.13;;;4.63;;
14799;SDS011;7491;57.750;11.970;2022-12-07T00:19:49;9.02;;;5.00;;
14799;SDS011;7491;57.750;11.970;2022-12-07T00:22:16;6.90;;;4.40;;
14799;SDS011;7491;57.750;11.970;2022-12-07T00:24:44;8.90;;;4.65;;
14799;SDS011;7491;57.750;11.970;2022-12-07T00:27:11;7.95;;;4.85;;
14799;SDS011;7491;57.750;11.970;2022-12-07T00:29:38;6.53;;;4.63;;
14799;SDS011;7491;57.750;11.970;2022-12-07T00:32:04;7.47;;;4.55;;
14799;SDS011;7491;57.750;11.970;2022-12-07T00:34:31;9.07;;;5.18;;
14799;SDS011;7491;57.750;11.970;2022-12-07T00:36:58;9.57;;;5.50;;
14799;SDS011;7491;57.750;11.970;2022-12-07T00:39:25;14.05;;;5.05;;
14799;SDS011;7491;57.750;11.970;2022-12-07T00:41:53;12.15;;;5.30;;
14799;SDS011;7491;57.750;11.970;2022-12-07T00:44:19;9.63;;;5.05;;
14799;SDS011;7491;57.750;11.970;2022-12-07T00:46:46;9.55;;;5.13;;
14799;SDS011;7491;57.750;11.970;2022-12-07T00:49:13;11.77;;;7.30;;
14799;SDS011;7491;57.750;11.970;2022-12-07T00:51:40;9.55;;;6.03;;
14799;SDS011;7491;57.750;11.970;2022-12-07T00:54:06;10.85;;;5.57;;
14799;SDS011;7491;57.750;11.970;2022-12-07T00:56:33;9.70;;;5.23;;
14799;SDS011;7491;57.750;11.970;2022-12-07T00:59:02;11.60;;;5.43;;
14799;SDS011;7491;57.750;11.970;2022-12-07T01:01:30;9.05;;;5.22;;
14799;SDS011;7491;57.750;11.970;2022-12-07T01:03:58;9.37;;;5.00;;
14799;SDS011;7491;57.750;11.970;2022-12-07T01:06:26;9.90;;;5.35;;
14799;SDS011;7491;57.750;11.970;2022-12-07T01:08:53;10.63;;;5.47;;
14799;SDS011;7491;57.750;11.970;2022-12-07T01:11:21;13.25;;;6.13;;
14799;SDS011;7491;57.750;11.970;2022-12-07T01:13:49;9.60;;;4.78;;
14799;SDS011;7491;57.750;11.970;2022-12-07T01:16:18;14.68;;;5.28;;
14799;SDS011;7491;57.750;11.970;2022-12-07T01:18:46;8.63;;;4.75;;
14799;SDS011;7491;57.750;11.970;2022-12-07T01:21:15;9.50;;;5.53;;
14799;SDS011;7491;57.750;11.970;2022-12-07T01:23:43;6.50;;;4.30;;
14799;SDS011;7491;57.750;11.970;2022-12-07T01:26:11;9.73;;;5.20;;
14799;SDS011;7491;57.750;11.970;2022-12-07T01:28:39;9.75;;;5.35;;
14799;SDS011;7491;57.750;11.970;2022-12-07T01:31:07;9.60;;;4.63;;
14799;SDS011;7491;57.750;11.970;2022-12-07T01:33:38;9.13;;;4.70;;
14799;SDS011;7491;57.750;11.970;2022-12-07T01:36:06;9.77;;;5.00;;
14799;SDS011;7491;57.750;11.970;2022-12-07T01:38:34;10.45;;;4.85;;
14799;SDS011;7491;57.750;11.970;2022-12-07T01:41:01;9.65;;;4.88;;
14799;SDS011;7491;57.750;11.970;2022-12-07T01:43:32;10.17;;;4.63;;
14799;SDS011;7491;57.750;11.970;2022-12-07T01:46:00;7.88;;;4.80;;
14799;SDS011;7491;57.750;11.970;2022-12-07T01:48:27;8.65;;;4.57;;
14799;SDS011;7491;57.750;11.970;2022-12-07T01:51:01;10.10;;;4.70;;
14799;SDS011;7491;57.750;11.970;2022-12-07T01:53:34;6.90;;;4.38;;
14799;SDS011;7491;57.750;11.970;2022-12-07T01:56:02;9.90;;;4.95;;
14799;SDS011;7491;57.750;11.970;2022-12-07T01:58:29;6.72;;;4.40;;
14799;SDS011;7491;57.750;11.970;2022-12-07T02:00:56;10.48;;;4.32;;
14799;SDS011;7491;57.750;11.970;2022-12-07T02:03:24;12.23;;;4.53;;
14799;SDS011;7491;57.750;11.970;2022-12-07T02:05:56;7.15;;;4.70;;
14799;SDS011;7491;57.750;11.970;2022-12-07T02:08:26;8.40;;;4.80;;
14799;SDS011;7491;57.750;11.970;2022-12-07T02:10:53;10.02;;;4.68;;
14799;SDS011;7491;57.750;11.970;2022-12-07T02:13:21;8.68;;;4.18;;
14799;SDS011;7491;57.750;11.970;2022-12-07T02:15:55;6.68;;;3.95;;
14799;SDS011;7491;57.750;11.970;2022-12-07T02:18:37;6.82;;;4.38;;
14799;SDS011;7491;57.750;11.970;2022-12-07T02:21:16;7.43;;;3.60;;
14799;SDS011;7491;57.750;11.970;2022-12-07T02:23:58;10.52;;;4.43;;
14799;SDS011;7491;57.750;11.970;2022-12-07T02:29:34;7.43;;;3.67;;
14799;SDS011;7491;57.750;11.970;2022-12-07T02:32:07;9.07;;;3.72;;
14799;SDS011;7491;57.750;11.970;2022-12-07T02:34:41;7.95;;;3.95;;
14799;SDS011;7491;57.750;11.970;2022-12-07T02:37:18;8.43;;;4.30;;
14799;SDS011;7491;57.750;11.970;2022-12-07T02:39:54;8.38;;;4.65;;
14799;SDS011;7491;57.750;11.970;2022-12-07T02:42:26;8.57;;;3.65;;
14799;SDS011;7491;57.750;11.970;2022-12-07T02:44:59;7.17;;;4.10;;
14799;SDS011;7491;57.750;11.970;2022-12-07T02:47:27;9.88;;;4.07;;
14799;SDS011;7491;57.750;11.970;2022-12-07T02:49:56;7.40;;;4.20;;
14799;SDS011;7491;57.750;11.970;2022-12-07T02:52:22;6.68;;;3.28;;
14799;SDS011;7491;57.750;11.970;2022-12-07T02:54:49;8.05;;;3.70;;
14799;SDS011;7491;57.750;11.970;2022-12-07T02:57:23;10.03;;;4.57;;
14799;SDS011;7491;57.750;11.970;2022-12-07T03:00:10;6.15;;;3.35;;
14799;SDS011;7491;57.750;11.970;2022-12-07T03:02:42;7.13;;;3.42;;
14799;SDS011;7491;57.750;11.970;2022-12-07T03:05:20;6.85;;;3.30;;
14799;SDS011;7491;57.750;11.970;2022-12-07T03:08:11;6.20;;;3.35;;
14799;SDS011;7491;57.750;11.970;2022-12-07T03:10:44;5.87;;;3.30;;
14799;SDS011;7491;57.750;11.970;2022-12-07T03:13:18;5.22;;;3.10;;
14799;SDS011;7491;57.750;11.970;2022-12-07T03:15:52;5.78;;;3.45;;
14799;SDS011;7491;57.750;11.970;2022-12-07T03:18:24;6.63;;;2.90;;
14799;SDS011;7491;57.750;11.970;2022-12-07T03:20:55;5.75;;;3.10;;
14799;SDS011;7491;57.750;11.970;2022-12-07T03:23:25;7.55;;;3.08;;
14799;SDS011;7491;57.750;11.970;2022-12-07T03:25:52;6.45;;;4.10;;
14799;SDS011;7491;57.750;11.970;2022-12-07T03:28:23;7.60;;;3.50;;
14799;SDS011;7491;57.750;11.970;2022-12-07T03:30:55;5.75;;;3.47;;
14799;SDS011;7491;57.750;11.970;2022-12-07T03:33:27;7.68;;;3.08;;
14799;SDS011;7491;57.750;11.970;2022-12-07T03:35:58;6.32;;;3.33;;
14799;SDS011;7491;57.750;11.970;2022-12-07T03:38:31;8.43;;;3.95;;
14799;SDS011;7491;57.750;11.970;2022-12-07T03:41:03;5.15;;;3.38;;
14799;SDS011;7491;57.750;11.970;2022-12-07T03:43:33;5.60;;;3.40;;
14799;SDS011;7491;57.750;11.970;2022-12-07T03:46:03;5.88;;;3.28;;
14799;SDS011;7491;57.750;11.970;2022-12-07T03:48:42;6.30;;;3.22;;
14799;SDS011;7491;57.750;11.970;2022-12-07T03:51:18;4.65;;;2.80;;
14799;SDS011;7491;57.750;11.970;2022-12-07T03:53:51;9.80;;;3.80;;
14799;SDS011;7491;57.750;11.970;2022-12-07T03:56:21;6.65;;;2.60;;
14799;SDS011;7491;57.750;11.970;2022-12-07T03:58:49;5.05;;;3.08;;
14799;SDS011;7491;57.750;11.970;2022-12-07T04:01:18;4.85;;;2.95;;
14799;SDS011;7491;57.750;11.970;2022-12-07T04:03:45;4.30;;;2.42;;
14799;SDS011;7491;57.750;11.970;2022-12-07T04:06:12;3.13;;;2.22;;
14799;SDS011;7491;57.750;11.970;2022-12-07T04:08:39;5.10;;;2.63;;
14799;SDS011;7491;57.750;11.970;2022-12-07T04:11:05;5.18;;;3.05;;
14799;SDS011;7491;57.750;11.970;2022-12-07T04:13:32;6.18;;;3.42;;
14799;SDS011;7491;57.750;11.970;2022-12-07T04:16:20;4.85;;;2.65;;
14799;SDS011;7491;57.750;11.970;2022-12-07T04:18:47;6.93;;;3.65;;
14799;SDS011;7491;57.750;11.970;2022-12-07T04:21:14;7.35;;;3.17;;
14799;SDS011;7491;57.750;11.970;2022-12-07T04:23:40;6.63;;;2.53;;
14799;SDS011;7491;57.750;11.970;2022-12-07T04:26:07;9.30;;;3.17;;
14799;SDS011;7491;57.750;11.970;2022-12-07T04:28:34;8.18;;;2.80;;
14799;SDS011;7491;57.750;11.970;2022-12-07T04:31:01;7.70;;;3.65;;
14799;SDS011;7491;57.750;11.970;2022-12-07T04:33:29;13.80;;;3.20;;
14799;SDS011;7491;57.750;11.970;2022-12-07T04:35:55;7.50;;;3.00;;
14799;SDS011;7491;57.750;11.970;2022-12-07T04:38:22;6.57;;;3.80;;
14799;SDS011;7491;57.750;11.970;2022-12-07T04:40:49;7.57;;;3.60;;
14799;SDS011;7491;57.750;11.970;2022-12-07T04:43:15;5.70;;;3.13;;
14799;SDS011;7491;57.750;11.970;2022-12-07T04:45:45;9.88;;;3.60;;
14799;SDS011;7491;57.750;11.970;2022-12-07T04:48:12;9.02;;;3.13;;
14799;SDS011;7491;57.750;11.970;2022-12-07T04:50:40;9.30;;;3.80;;
14799;SDS011;7491;57.750;11.970;2022-12-07T04:53:07;5.20;;;2.33;;
14799;SDS011;7491;57.750;11.970;2022-12-07T04:55:34;7.75;;;3.58;;
14799;SDS011;7491;57.750;11.970;2022-12-07T04:58:00;9.52;;;3.42;;
14799;SDS011;7491;57.750;11.970;2022-12-07T05:00:27;8.30;;;3.17;;
14799;SDS011;7491;57.750;11.970;2022-12-07T05:02:54;8.05;;;3.45;;
14799;SDS011;7491;57.750;11.970;2022-12-07T05:05:21;4.65;;;2.15;;
14799;SDS011;7491;57.750;11.970;2022-12-07T05:07:49;6.50;;;2.70;;
14799;SDS011;7491;57.750;11.970;2022-12-07T05:10:16;5.57;;;2.72;;
14799;SDS011;7491;57.750;11.970;2022-12-07T05:12:43;9.45;;;3.95;;
14799;SDS011;7491;57.750;11.970;2022-12-07T05:15:10;8.43;;;3.60;;
14799;SDS011;7491;57.750;11.970;2022-12-07T05:17:37;7.60;;;3.03;;
14799;SDS011;7491;57.750;11.970;2022-12-07T05:20:04;13.32;;;3.60;;
14799;SDS011;7491;57.750;11.970;2022-12-07T05:22:32;13.55;;;4.18;;
14799;SDS011;7491;57.750;11.970;2022-12-07T05:25:00;15.75;;;5.22;;
14799;SDS011;7491;57.750;11.970;2022-12-07T05:27:27;14.63;;;5.82;;
14799;SDS011;7491;57.750;11.970;2022-12-07T05:29:53;21.13;;;5.63;;
14799;SDS011;7491;57.750;11.970;2022-12-07T05:32:20;18.90;;;5.45;;
14799;SDS011;7491;57.750;11.970;2022-12-07T05:34:47;15.85;;;5.55;;
14799;SDS011;7491;57.750;11.970;2022-12-07T05:37:13;15.43;;;6.32;;
14799;SDS011;7491;57.750;11.970;2022-12-07T05:39:40;22.42;;;6.38;;
14799;SDS011;7491;57.750;11.970;2022-12-07T05:42:10;14.18;;;4.60;;
14799;SDS011;7491;57.750;11.970;2022-12-07T05:44:39;16.40;;;5.78;;
14799;SDS011;7491;57.750;11.970;2022-12-07T05:47:06;19.13;;;5.82;;
14799;SDS011;7491;57.750;11.970;2022-12-07T05:49:33;14.30;;;4.50;;
14799;SDS011;7491;57.750;11.970;2022-12-07T05:52:00;13.82;;;4.70;;
14799;SDS011;7491;57.750;11.970;2022-12-07T05:54:27;14.15;;;5.68;;
14799;SDS011;7491;57.750;11.970;2022-12-07T05:56:53;18.05;;;5.88;;
14799;SDS011;7491;57.750;11.970;2022-12-07T05:59:22;13.00;;;5.18;;
14799;SDS011;7491;57.750;11.970;2022-12-07T06:01:47;13.95;;;4.82;;
14799;SDS011;7491;57.750;11.970;2022-12-07T06:04:15;15.70;;;5.47;;
14799;SDS011;7491;57.750;11.970;2022-12-07T06:06:42;14.57;;;5.70;;
14799;SDS011;7491;57.750;11.970;2022-12-07T06:09:09;15.80;;;5.32;;
14799;SDS011;7491;57.750;11.970;2022-12-07T06:11:36;14.90;;;5.45;;
14799;SDS011;7491;57.750;11.970;2022-12-07T06:14:22;11.70;;;4.18;;
14799;SDS011;7491;57.750;11.970;2022-12-07T06:16:49;12.87;;;5.00;;
14799;SDS011;7491;57.750;11.970;2022-12-07T06:19:15;12.23;;;5.35;;
14799;SDS011;7491;57.750;11.970;2022-12-07T06:21:43;14.18;;;5.65;;
14799;SDS011;7491;57.750;11.970;2022-12-07T06:24:10;20.27;;;6.63;;
14799;SDS011;7491;57.750;11.970;2022-12-07T06:26:37;16.80;;;5.45;;
14799;SDS011;7491;57.750;11.970;2022-12-07T06:29:05;17.13;;;5.82;;
14799;SDS011;7491;57.750;11.970;2022-12-07T06:31:33;18.67;;;5.28;;
14799;SDS011;7491;57.750;11.970;2022-12-07T06:34:00;19.83;;;5.97;;
14799;SDS011;7491;57.750;11.970;2022-12-07T06:36:27;20.90;;;6.10;;
14799;SDS011;7491;57.750;11.970;2022-12-07T06:38:54;20.45;;;6.75;;
14799;SDS011;7491;57.750;11.970;2022-12-07T06:41:22;16.73;;;5.83;;
14799;SDS011;7491;57.750;11.970;2022-12-07T06:43:49;14.32;;;6.07;;
14799;SDS011;7491;57.750;11.970;2022-12-07T06:46:16;11.55;;;4.75;;
14799;SDS011;7491;57.750;11.970;2022-12-07T06:48:44;9.95;;;4.70;;
14799;SDS011;7491;57.750;11.970;2022-12-07T06:51:11;9.10;;;4.05;;
14799;SDS011;7491;57.750;11.970;2022-12-07T06:53:38;8.73;;;4.18;;
14799;SDS011;7491;57.750;11.970;2022-12-07T06:56:05;13.18;;;5.57;;
14799;SDS011;7491;57.750;11.970;2022-12-07T06:58:32;7.82;;;4.05;;
14799;SDS011;7491;57.750;11.970;2022-12-07T07:00:58;5.57;;;3.22;;
14799;SDS011;7491;57.750;11.970;2022-12-07T07:03:25;3.67;;;2.20;;
14799;SDS011;7491;57.750;11.970;2022-12-07T07:05:53;3.33;;;2.03;;
14799;SDS011;7491;57.750;11.970;2022-12-07T07:08:20;4.05;;;1.65;;
14799;SDS011;7491;57.750;11.970;2022-12-07T07:10:47;6.80;;;2.05;;
14799;SDS011;7491;57.750;11.970;2022-12-07T07:13:13;3.20;;;2.08;;
14799;SDS011;7491;57.750;11.970;2022-12-07T07:15:40;4.50;;;1.77;;
14799;SDS011;7491;57.750;11.970;2022-12-07T07:18:07;4.35;;;2.30;;
14799;SDS011;7491;57.750;11.970;2022-12-07T07:20:33;3.72;;;2.05;;
14799;SDS011;7491;57.750;11.970;2022-12-07T07:23:02;2.42;;;1.60;;
14799;SDS011;7491;57.750;11.970;2022-12-07T07:25:29;3.63;;;1.90;;
14799;SDS011;7491;57.750;11.970;2022-12-07T07:27:55;3.33;;;1.80;;
14799;SDS011;7491;57.750;11.970;2022-12-07T07:30:22;6.65;;;2.40;;
14799;SDS011;7491;57.750;11.970;2022-12-07T07:32:49;4.07;;;2.10;;
14799;SDS011;7491;57.750;11.970;2022-12-07T07:35:16;6.43;;;1.95;;
14799;SDS011;7491;57.750;11.970;2022-12-07T07:37:44;3.03;;;1.90;;
14799;SDS011;7491;57.750;11.970;2022-12-07T07:40:12;2.38;;;1.80;;
14799;SDS011;7491;57.750;11.970;2022-12-07T07:42:39;3.03;;;1.90;;
14799;SDS011;7491;57.750;11.970;2022-12-07T07:45:06;4.13;;;2.17;;
14799;SDS011;7491;57.750;11.970;2022-12-07T07:47:34;2.50;;;1.80;;
14799;SDS011;7491;57.750;11.970;2022-12-07T07:50:00;3.58;;;1.90;;
14799;SDS011;7491;57.750;11.970;2022-12-07T07:52:27;2.72;;;2.10;;
14799;SDS011;7491;57.750;11.970;2022-12-07T07:54:54;4.28;;;2.30;;
14799;SDS011;7491;57.750;11.970;2022-12-07T07:57:22;2.05;;;1.90;;
14799;SDS011;7491;57.750;11.970;2022-12-07T07:59:49;2.95;;;1.50;;
14799;SDS011;7491;57.750;11.970;2022-12-07T08:02:16;2.10;;;1.70;;
14799;SDS011;7491;57.750;11.970;2022-12-07T08:04:44;6.95;;;1.98;;
14799;SDS011;7491;57.750;11.970;2022-12-07T08:07:12;6.45;;;1.83;;
14799;SDS011;7491;57.750;11.970;2022-12-07T08:09:39;3.85;;;1.70;;
14799;SDS011;7491;57.750;11.970;2022-12-07T08:12:06;5.05;;;1.40;;
14799;SDS011;7491;57.750;11.970;2022-12-07T08:14:35;2.97;;;1.70;;
14799;SDS011;7491;57.750;11.970;2022-12-07T08:17:02;2.85;;;1.70;;
14799;SDS011;7491;57.750;11.970;2022-12-07T08:19:28;3.93;;;1.63;;
14799;SDS011;7491;57.750;11.970;2022-12-07T08:21:55;3.33;;;1.65;;
14799;SDS011;7491;57.750;11.970;2022-12-07T08:24:22;4.03;;;1.48;;
14799;SDS011;7491;57.750;11.970;2022-12-07T08:26:50;2.03;;;1.83;;
14799;SDS011;7491;57.750;11.970;2022-12-07T08:29:17;3.30;;;1.58;;
14799;SDS011;7491;57.750;11.970;2022-12-07T08:31:45;2.13;;;1.10;;
14799;SDS011;7491;57.750;11.970;2022-12-07T08:34:13;2.72;;;1.58;;
14799;SDS011;7491;57.750;11.970;2022-12-07T08:36:40;1.35;;;1.17;;
14799;SDS011;7491;57.750;11.970;2022-12-07T08:39:06;1.13;;;1.02;;
14799;SDS011;7491;57.750;11.970;2022-12-07T08:41:36;2.20;;;1.55;;
14799;SDS011;7491;57.750;11.970;2022-12-07T08:44:03;3.90;;;1.37;;
14799;SDS011;7491;57.750;11.970;2022-12-07T08:46:31;1.83;;;1.25;;
14799;SDS011;7491;57.750;11.970;2022-12-07T08:49:04;1.35;;;0.95;;
14799;SDS011;7491;57.750;11.970;2022-12-07T08:51:34;3.10;;;1.88;;
14799;SDS011;7491;57.750;11.970;2022-12-07T08:54:02;4.78;;;1.48;;
14799;SDS011;7491;57.750;11.970;2022-12-07T08:56:32;2.65;;;1.48;;
14799;SDS011;7491;57.750;11.970;2022-12-07T08:59:00;3.00;;;2.00;;
14799;SDS011;7491;57.750;11.970;2022-12-07T09:01:27;9.30;;;2.00;;
14799;SDS011;7491;57.750;11.970;2022-12-07T09:03:54;5.53;;;1.73;;
14799;SDS011;7491;57.750;11.970;2022-12-07T09:06:23;1.85;;;1.17;;
14799;SDS011;7491;57.750;11.970;2022-12-07T09:08:51;3.00;;;1.80;;
14799;SDS011;7491;57.750;11.970;2022-12-07T09:11:23;5.80;;;1.98;;
14799;SDS011;7491;57.750;11.970;2022-12-07T09:13:49;3.78;;;2.20;;
14799;SDS011;7491;57.750;11.970;2022-12-07T09:16:16;8.77;;;2.42;;
14799;SDS011;7491;57.750;11.970;2022-12-07T09:18:43;11.07;;;2.60;;
14799;SDS011;7491;57.750;11.970;2022-12-07T09:21:10;4.65;;;2.35;;
14799;SDS011;7491;57.750;11.970;2022-12-07T09:23:38;9.15;;;2.90;;
14799;SDS011;7491;57.750;11.970;2022-12-07T09:26:05;4.93;;;2.08;;
14799;SDS011;7491;57.750;11.970;2022-12-07T09:28:32;2.30;;;1.30;;
14799;SDS011;7491;57.750;11.970;2022-12-07T09:30:58;7.75;;;1.40;;
14799;SDS011;7491;57.750;11.970;2022-12-07T09:33:25;5.28;;;1.67;;
14799;SDS011;7491;57.750;11.970;2022-12-07T09:35:52;3.83;;;1.70;;
14799;SDS011;7491;57.750;11.970;2022-12-07T09:38:19;4.80;;;2.05;;
14799;SDS011;7491;57.750;11.970;2022-12-07T09:40:47;6.03;;;1.30;;
14799;SDS011;7491;57.750;11.970;2022-12-07T09:43:15;4.57;;;2.25;;
14799;SDS011;7491;57.750;11.970;2022-12-07T09:45:43;3.97;;;1.60;;
14799;SDS011;7491;57.750;11.970;2022-12-07T09:48:14;8.35;;;1.27;;
14799;SDS011;7491;57.750;11.970;2022-12-07T09:50:44;6.60;;;1.67;;
14799;SDS011;7491;57.750;11.970;2022-12-07T09:53:13;12.40;;;1.65;;
14799;SDS011;7491;57.750;11.970;2022-12-07T09:55:42;4.85;;;1.58;;
14799;SDS011;7491;57.750;11.970;2022-12-07T09:58:12;1.55;;;1.10;;
14799;SDS011;7491;57.750;11.970;2022-12-07T10:00:45;5.25;;;1.75;;
14799;SDS011;7491;57.750;11.970;2022-12-07T10:03:12;2.25;;;1.17;;
14799;SDS011;7491;57.750;11.970;2022-12-07T10:05:40;1.42;;;1.25;;
14799;SDS011;7491;57.750;11.970;2022-12-07T10:08:11;3.20;;;1.35;;
14799;SDS011;7491;57.750;11.970;2022-12-07T10:10:41;3.38;;;1.25;;
14799;SDS011;7491;57.750;11.970;2022-12-07T10:13:09;6.20;;;1.58;;
14799;SDS011;7491;57.750;11.970;2022-12-07T10:15:42;5.68;;;1.40;;
14799;SDS011;7491;57.750;11.970;2022-12-07T10:18:16;2.85;;;1.20;;
14799;SDS011;7491;57.750;11.970;2022-12-07T10:20:45;9.77;;;2.00;;
14799;SDS011;7491;57.750;11.970;2022-12-07T10:23:13;5.95;;;1.40;;
14799;SDS011;7491;57.750;11.970;2022-12-07T10:25:42;2.13;;;1.52;;
14799;SDS011;7491;57.750;11.970;2022-12-07T10:28:13;3.05;;;1.27;;
14799;SDS011;7491;57.750;11.970;2022-12-07T10:30:48;1.52;;;1.42;;
14799;SDS011;7491;57.750;11.970;2022-12-07T10:33:27;4.90;;;1.50;;
14799;SDS011;7491;57.750;11.970;2022-12-07T10:35:58;2.75;;;1.63;;
14799;SDS011;7491;57.750;11.970;2022-12-07T10:38:27;2.72;;;1.27;;
14799;SDS011;7491;57.750;11.970;2022-12-07T10:41:04;4.32;;;1.60;;
14799;SDS011;7491;57.750;11.970;2022-12-07T10:43:32;3.13;;;1.50;;
14799;SDS011;7491;57.750;11.970;2022-12-07T10:46:17;2.00;;;1.20;;
14799;SDS011;7491;57.750;11.970;2022-12-07T10:49:14;3.53;;;1.50;;
14799;SDS011;7491;57.750;11.970;2022-12-07T10:51:59;6.90;;;2.05;;
14799;SDS011;7491;57.750;11.970;2022-12-07T10:54:38;4.00;;;1.50;;
14799;SDS011;7491;57.750;11.970;2022-12-07T10:57:22;4.65;;;1.13;;
14799;SDS011;7491;57.750;11.970;2022-12-07T11:00:07;4.22;;;1.52;;
14799;SDS011;7491;57.750;11.970;2022-12-07T11:02:53;1.67;;;0.95;;
14799;SDS011;7491;57.750;11.970;2022-12-07T11:05:35;4.68;;;1.40;;
14799;SDS011;7491;57.750;11.970;2022-12-07T11:08:12;3.83;;;1.40;;
14799;SDS011;7491;57.750;11.970;2022-12-07T11:10:48;2.55;;;1.25;;
14799;SDS011;7491;57.750;11.970;2022-12-07T11:13:25;8.00;;;1.20;;
14799;SDS011;7491;57.750;11.970;2022-12-07T11:16:04;4.70;;;1.38;;
14799;SDS011;7491;57.750;11.970;2022-12-07T11:18:51;3.60;;;1.58;;
14799;SDS011;7491;57.750;11.970;2022-12-07T11:21:28;1.80;;;1.55;;
14799;SDS011;7491;57.750;11.970;2022-12-07T11:24:01;4.13;;;1.30;;
14799;SDS011;7491;57.750;11.970;2022-12-07T11:26:42;2.92;;;0.93;;
14799;SDS011;7491;57.750;11.970;2022-12-07T11:29:44;2.75;;;1.13;;
14799;SDS011;7491;57.750;11.970;2022-12-07T11:32:26;4.47;;;0.90;;
14799;SDS011;7491;57.750;11.970;2022-12-07T11:35:14;3.27;;;1.20;;
14799;SDS011;7491;57.750;11.970;2022-12-07T11:37:51;2.35;;;1.13;;
14799;SDS011;7491;57.750;11.970;2022-12-07T11:40:24;1.10;;;0.83;;
14799;SDS011;7491;57.750;11.970;2022-12-07T11:42:55;5.25;;;1.10;;
14799;SDS011;7491;57.750;11.970;2022-12-07T11:45:27;3.58;;;0.95;;
14799;SDS011;7491;57.750;11.970;2022-12-07T11:47:58;2.07;;;1.00;;
14799;SDS011;7491;57.750;11.970;2022-12-07T11:50:30;1.37;;;1.07;;
14799;SDS011;7491;57.750;11.970;2022-12-07T11:53:03;2.97;;;1.07;;
14799;SDS011;7491;57.750;11.970;2022-12-07T11:55:40;1.55;;;1.00;;
14799;SDS011;7491;57.750;11.970;2022-12-07T11:58:17;3.90;;;1.73;;
14799;SDS011;7491;57.750;11.970;2022-12-07T12:00:49;5.20;;;1.40;;
14799;SDS011;7491;57.750;11.970;2022-12-07T12:03:22;1.67;;;1.23;;
14799;SDS011;7491;57.750;11.970;2022-12-07T12:05:58;3.30;;;1.10;;
14799;SDS011;7491;57.750;11.970;2022-12-07T12:08:26;1.05;;;0.95;;
14799;SDS011;7491;57.750;11.970;2022-12-07T12:10:59;1.45;;;1.08;;
14799;SDS011;7491;57.750;11.970;2022-12-07T12:13:46;2.17;;;1.02;;
14799;SDS011;7491;57.750;11.970;2022-12-07T12:16:37;3.22;;;1.30;;
14799;SDS011;7491;57.750;11.970;2022-12-07T12:19:17;2.55;;;1.00;;
14799;SDS011;7491;57.750;11.970;2022-12-07T12:21:54;3.65;;;1.20;;
14799;SDS011;7491;57.750;11.970;2022-12-07T12:24:28;2.88;;;1.27;;
14799;SDS011;7491;57.750;11.970;2022-12-07T12:27:02;3.17;;;1.30;;
14799;SDS011;7491;57.750;11.970;2022-12-07T12:29:31;2.97;;;1.20;;
14799;SDS011;7491;57.750;11.970;2022-12-07T12:32:06;2.88;;;1.15;;
14799;SDS011;7491;57.750;11.970;2022-12-07T12:34:40;1.50;;;1.02;;
14799;SDS011;7491;57.750;11.970;2022-12-07T12:37:43;2.30;;;1.10;;
14799;SDS011;7491;57.750;11.970;2022-12-07T12:49:14;1.48;;;1.10;;
14799;SDS011;7491;57.750;11.970;2022-12-07T12:52:00;2.07;;;1.30;;
14799;SDS011;7491;57.750;11.970;2022-12-07T12:54:30;4.37;;;1.20;;
14799;SDS011;7491;57.750;11.970;2022-12-07T12:56:59;1.88;;;1.38;;
14799;SDS011;7491;57.750;11.970;2022-12-07T12:59:31;2.10;;;1.00;;
14799;SDS011;7491;57.750;11.970;2022-12-07T13:02:15;2.85;;;1.73;;
14799;SDS011;7491;57.750;11.970;2022-12-07T13:04:50;1.90;;;1.23;;
14799;SDS011;7491;57.750;11.970;2022-12-07T13:10:25;5.55;;;1.40;;
14799;SDS011;7491;57.750;11.970;2022-12-07T13:13:33;3.33;;;1.48;;
14799;SDS011;7491;57.750;11.970;2022-12-07T13:28:09;4.47;;;1.40;;
14799;SDS011;7491;57.750;11.970;2022-12-07T13:30:44;4.13;;;1.17;;
14799;SDS011;7491;57.750;11.970;2022-12-07T13:33:30;6.77;;;1.20;;
14799;SDS011;7491;57.750;11.970;2022-12-07T13:35:57;2.05;;;1.33;;
14799;SDS011;7491;57.750;11.970;2022-12-07T13:38:27;4.47;;;0.88;;
14799;SDS011;7491;57.750;11.970;2022-12-07T13:41:00;6.00;;;1.60;;
14799;SDS011;7491;57.750;11.970;2022-12-07T13:43:29;11.02;;;2.65;;
14799;SDS011;7491;57.750;11.970;2022-12-07T13:45:56;4.13;;;1.10;;
14799;SDS011;7491;57.750;11.970;2022-12-07T13:48:27;5.60;;;1.50;;
14799;SDS011;7491;57.750;11.970;2022-12-07T13:50:59;4.73;;;1.50;;
14799;SDS011;7491;57.750;11.970;2022-12-07T13:53:27;4.53;;;1.15;;
14799;SDS011;7491;57.750;11.970;2022-12-07T13:55:55;7.35;;;2.05;;
14799;SDS011;7491;57.750;11.970;2022-12-07T13:58:24;4.22;;;1.45;;
14799;SDS011;7491;57.750;11.970;2022-12-07T14:00:52;3.17;;;1.30;;
14799;SDS011;7491;57.750;11.970;2022-12-07T14:03:23;1.50;;;1.10;;
14799;SDS011;7491;57.750;11.970;2022-12-07T14:06:10;6.93;;;1.60;;
14799;SDS011;7491;57.750;11.970;2022-12-07T14:08:41;4.70;;;1.35;;
14799;SDS011;7491;57.750;11.970;2022-12-07T14:11:08;4.20;;;1.55;;
14799;SDS011;7491;57.750;11.970;2022-12-07T14:13:44;2.25;;;1.23;;
14799;SDS011;7491;57.750;11.970;2022-12-07T14:16:20;3.50;;;1.80;;
14799;SDS011;7491;57.750;11.970;2022-12-07T14:18:51;3.83;;;1.42;;
14799;SDS011;7491;57.750;11.970;2022-12-07T14:21:19;2.88;;;1.13;;
14799;SDS011;7491;57.750;11.970;2022-12-07T14:24:02;3.28;;;2.00;;
14799;SDS011;7491;57.750;11.970;2022-12-07T14:26:34;2.28;;;1.13;;
14799;SDS011;7491;57.750;11.970;2022-12-07T14:31:50;4.07;;;1.77;;
14799;SDS011;7491;57.750;11.970;2022-12-07T14:34:23;5.15;;;1.50;;
14799;SDS011;7491;57.750;11.970;2022-12-07T14:36:50;3.60;;;1.23;;
14799;SDS011;7491;57.750;11.970;2022-12-07T14:39:17;3.40;;;1.47;;
14799;SDS011;7491;57.750;11.970;2022-12-07T14:41:44;3.40;;;1.30;;
14799;SDS011;7491;57.750;11.970;2022-12-07T14:44:16;4.00;;;1.58;;
14799;SDS011;7491;57.750;11.970;2022-12-07T14:46:48;3.78;;;1.58;;
14799;SDS011;7491;57.750;11.970;2022-12-07T14:49:15;3.35;;;1.67;;
14799;SDS011;7491;57.750;11.970;2022-12-07T14:51:43;9.43;;;2.28;;
14799;SDS011;7491;57.750;11.970;2022-12-07T14:54:14;7.50;;;2.38;;
14799;SDS011;7491;57.750;11.970;2022-12-07T14:56:43;4.63;;;2.70;;
14799;SDS011;7491;57.750;11.970;2022-12-07T14:59:10;9.57;;;3.15;;
14799;SDS011;7491;57.750;11.970;2022-12-07T15:01:37;5.97;;;2.72;;
14799;SDS011;7491;57.750;11.970;2022-12-07T15:04:06;4.67;;;2.70;;
14799;SDS011;7491;57.750;11.970;2022-12-07T15:06:32;4.53;;;2.67;;
14799;SDS011;7491;57.750;11.970;2022-12-07T15:08:59;4.13;;;2.10;;
14799;SDS011;7491;57.750;11.970;2022-12-07T15:11:26;4.50;;;2.60;;
14799;SDS011;7491;57.750;11.970;2022-12-07T15:13:53;4.15;;;2.40;;
14799;SDS011;7491;57.750;11.970;2022-12-07T15:16:36;5.90;;;2.22;;
14799;SDS011;7491;57.750;11.970;2022-12-07T15:19:19;7.07;;;3.20;;
14799;SDS011;7491;57.750;11.970;2022-12-07T15:21:51;7.87;;;2.30;;
14799;SDS011;7491;57.750;11.970;2022-12-07T15:24:18;5.40;;;1.90;;
14799;SDS011;7491;57.750;11.970;2022-12-07T15:26:45;5.85;;;2.10;;
14799;SDS011;7491;57.750;11.970;2022-12-07T15:29:12;4.30;;;1.67;;
14799;SDS011;7491;57.750;11.970;2022-12-07T15:31:39;4.88;;;1.92;;
14799;SDS011;7491;57.750;11.970;2022-12-07T15:34:06;1.93;;;1.60;;